Time;durP1;ratioP1;P1;durP2;ratioP2;P2;SDS_P1;SDS_P2;PMS_P1;PMS_P2;Temp;Humidity;BMP_temperature;BMP_pressure;BME280_temperature;BME280_humidity;BME280_pressure;Samples;Min_cycle;Max_cycle;Signal;HPM_P1;HPM_P2
2023/12/01 00:01:15;;;;;;;200.48;16.42;;;;;;;-8.30;91.88;99972.06;4963817;28;20029;-85
2023/12/01 00:03:41;;;;;;;266.73;19.00;;;-6.30;99.90;;;-8.43;91.98;99972.72;4979527;28;20040;-83
2023/12/01 00:06:07;;;;;;;269.60;15.18;;;-6.40;99.90;;;-8.58;92.52;99969.03;4960646;28;20105;-84
2023/12/01 00:08:38;;;;;;;218.23;16.77;;;-6.50;99.90;;;-8.62;92.78;99972.34;4985649;28;20030;-86
2023/12/01 00:11:05;;;;;;;266.60;16.88;;;-6.50;99.90;;;-8.66;92.44;99957.81;4937947;28;20041;-85
2023/12/01 00:13:30;;;;;;;74.57;16.83;;;-6.50;99.90;;;-8.64;92.88;99963.81;4981712;28;20033;-85
2023/12/01 00:15:59;;;;;;;66.57;16.77;;;-6.60;99.90;;;-8.67;92.16;99964.63;4981351;28;20048;-87
2023/12/01 00:18:27;;;;;;;60.72;16.95;;;-6.60;99.90;;;-8.65;92.18;99977.41;4933876;28;20046;-86
2023/12/01 00:20:55;;;;;;;51.45;17.30;;;-6.60;99.90;;;-8.64;92.23;99976.56;4943709;28;20040;-87
2023/12/01 00:23:21;;;;;;;45.80;15.77;;;-6.60;99.90;;;-8.63;92.54;99973.19;4962655;28;20033;-84
2023/12/01 00:25:47;;;;;;;44.95;15.65;;;;;;;-8.63;92.50;99978.31;4946457;28;20136;-86
2023/12/01 00:28:14;;;;;;;150.38;13.48;;;-5.70;99.90;;;-8.63;92.58;99980.00;4965187;28;20038;-84
2023/12/01 00:30:39;;;;;;;51.83;11.95;;;-6.60;99.90;;;-8.70;91.92;99977.34;4976010;28;20045;-84
2023/12/01 00:33:15;;;;;;;57.80;13.38;;;-6.60;99.90;;;-8.68;92.10;99982.47;4949908;28;20052;-85
2023/12/01 00:35:41;;;;;;;;;;;-6.60;99.90;;;-8.75;91.39;99975.50;4985252;28;20037;-84
2023/12/01 00:38:06;;;;;;;83.15;13.52;;;-6.70;99.90;;;-8.84;91.76;99973.66;4986478;28;20416;-86
2023/12/01 00:40:32;;;;;;;51.20;14.30;;;-6.80;99.90;;;-9.06;90.71;99964.72;4933716;28;20161;-84
2023/12/01 00:43:03;;;;;;;67.45;13.60;;;-7.00;99.90;;;-9.21;90.57;99965.25;4966703;28;20036;-85
2023/12/01 00:45:29;;;;;;;54.53;13.43;;;-7.10;99.90;;;-9.27;89.98;99964.25;4997485;28;20037;-84
2023/12/01 00:47:57;;;;;;;30.80;12.82;;;;;;;-9.31;90.00;99970.97;4963549;28;20063;-85
2023/12/01 00:50:35;;;;;;;27.95;11.43;;;-7.20;99.90;;;-9.33;89.64;99970.06;4973924;28;20496;-86
2023/12/01 00:53:01;;;;;;;31.75;10.98;;;-7.20;99.90;;;-9.31;89.49;99976.06;4901612;28;20055;-84
2023/12/01 00:55:27;;;;;;;25.17;10.57;;;-7.20;99.90;;;-9.32;89.72;99969.25;4956780;28;20496;-88
2023/12/01 00:58:03;;;;;;;28.52;11.48;;;-7.20;99.90;;;-9.30;89.32;99971.00;4949985;28;20025;-86
2023/12/01 01:00:29;;;;;;;25.27;9.25;;;;;;;-9.34;89.34;99968.38;4919888;28;20116;-85
2023/12/01 01:03:02;;;;;;;26.83;9.52;;;-7.30;99.90;;;-9.37;89.10;99970.84;4988769;28;20033;-86
2023/12/01 01:05:28;;;;;;;22.13;9.32;;;-7.30;99.90;;;-9.43;89.05;99963.09;4946035;28;20041;-85
2023/12/01 01:07:54;;;;;;;21.75;8.57;;;-7.30;99.90;;;-9.41;89.14;99975.03;4961028;28;20485;-87
2023/12/01 01:10:20;;;;;;;28.00;10.35;;;-7.30;99.90;;;-9.42;89.26;99975.00;4928543;28;20037;-84
2023/12/01 01:12:46;;;;;;;24.45;9.07;;;-7.30;99.90;;;-9.41;89.68;99977.56;4955646;28;20037;-85
2023/12/01 01:15:12;;;;;;;27.17;9.32;;;-7.30;99.90;;;-9.37;89.12;99988.69;4940268;28;20021;-84
2023/12/01 01:17:45;;;;;;;28.23;9.55;;;-7.20;99.90;;;-9.37;89.10;99986.13;4942107;28;20041;-87
2023/12/01 01:20:11;;;;;;;28.45;10.73;;;-7.20;99.90;;;-9.37;90.03;99984.47;4946997;28;20060;-84
2023/12/01 01:22:38;;;;;;;24.25;9.25;;;;;;;-9.34;89.14;99988.78;4959154;28;20044;-86
2023/12/01 01:25:15;;;;;;;;;;;;;;;;;;;;;
2023/12/01 01:27:41;;;;;;;23.95;9.02;;;-7.30;99.90;;;-9.43;89.42;99994.53;4995269;28;20257;-84
2023/12/01 01:30:07;;;;;;;25.92;9.65;;;;;;;-9.47;89.73;99991.88;4962389;28;20042;-87
2023/12/01 01:32:46;;;;;;;27.30;10.57;;;;;;;-9.50;89.39;99987.59;4933789;28;21931;-86
2023/12/01 01:35:12;;;;;;;26.75;10.32;;;;;;;-9.52;89.14;99986.69;4984820;28;20501;-85
2023/12/01 01:37:43;;;;;;;30.20;11.45;;;-7.40;99.90;;;-9.50;89.30;99992.69;4947970;28;20028;-84
2023/12/01 01:40:14;;;;;;;30.13;10.30;;;-7.40;99.90;;;-9.48;88.93;99991.00;4968911;28;20052;-85
2023/12/01 01:42:40;;;;;;;32.85;11.00;;;-7.40;99.90;;;-9.45;89.25;99995.31;4951167;28;20037;-84
2023/12/01 01:45:12;;;;;;;26.60;10.65;;;;;;;-9.42;89.68;99996.22;4971259;28;20423;-85
2023/12/01 01:47:38;;;;;;;29.48;11.00;;;;;;;-9.41;89.53;100000.53;4980531;28;20040;-84
2023/12/01 01:50:06;;;;;;;38.22;12.55;;;-7.30;99.90;;;-9.39;89.18;99996.31;4994482;28;20272;-86
2023/12/01 01:52:41;;;;;;;31.70;11.80;;;-7.30;99.90;;;-9.36;89.01;99996.38;4942253;28;20137;-85
2023/12/01 01:55:09;;;;;;;29.58;10.82;;;-7.30;99.90;;;-9.34;89.40;99983.66;4960925;28;20021;-86
2023/12/01 01:57:42;;;;;;;26.65;11.10;;;-7.20;99.90;;;-9.28;89.68;99988.91;4941704;28;20201;-86
2023/12/01 02:00:10;;;;;;;24.70;8.63;;;-7.20;99.90;;;-9.28;89.39;99988.91;4954048;28;20071;-84
2023/12/01 02:02:36;;;;;;;28.27;10.27;;;-7.20;99.90;;;-9.33;89.22;99986.25;4983339;28;20807;-86
2023/12/01 02:05:02;;;;;;;33.33;11.07;;;-7.30;99.90;;;-9.42;89.32;99986.03;4971588;28;20053;-84
2023/12/01 02:07:28;;;;;;;26.67;9.80;;;-7.30;99.90;;;-9.51;89.74;99988.38;4964292;28;20029;-85
2023/12/01 02:10:03;;;;;;;31.05;9.65;;;;;;;-9.62;89.79;99984.75;4982141;28;20075;-86
2023/12/01 02:12:29;;;;;;;29.85;8.55;;;-7.50;99.90;;;-9.74;90.37;99982.75;4971269;28;20749;-85
2023/12/01 02:14:55;;;;;;;24.70;9.77;;;;;;;-9.74;90.21;99988.75;4975918;28;20063;-86
2023/12/01 02:17:27;;;;;;;32.33;10.35;;;-7.50;99.90;;;-9.64;90.72;99983.84;4980026;28;20036;-83
2023/12/01 02:19:56;;;;;;;33.72;12.23;;;-7.50;99.90;;;-9.52;90.39;99991.78;4939325;28;20057;-87
2023/12/01 02:22:21;;;;;;;28.50;11.43;;;-7.40;99.90;;;-9.44;91.06;99994.47;4988360;28;20069;-84
2023/12/01 02:24:47;;;;;;;27.58;10.68;;;-7.40;99.90;;;-9.41;90.88;99989.47;4962775;28;20124;-86
2023/12/01 02:27:25;;;;;;;27.58;10.68;;;-7.30;99.90;;;-9.41;91.19;99997.97;4928068;28;20056;-86
2023/12/01 02:29:51;;;;;;;19.23;7.72;;;-7.40;99.90;;;-9.45;91.06;99990.22;4981527;28;20088;-84
2023/12/01 02:32:22;;;;;;;28.50;10.85;;;-7.40;99.90;;;-9.49;90.86;99992.69;4979717;28;20025;-87
2023/12/01 02:34:48;;;;;;;31.20;11.45;;;-7.40;99.90;;;-9.48;90.79;99996.09;4973778;28;20446;-84
2023/12/01 02:37:14;;;;;;;51.17;20.67;;;-7.40;99.90;;;-9.43;90.57;99994.53;4941801;28;20084;-85
2023/12/01 02:39:40;;;;;;;35.22;12.93;;;-7.30;99.90;;;-9.39;90.20;99993.78;4966250;28;20079;-85
2023/12/01 02:42:06;;;;;;;29.08;10.68;;;;;;;-9.38;90.10;100000.56;4940476;28;20037;-86
2023/12/01 02:44:32;;;;;;;34.22;12.27;;;-7.30;99.90;;;-9.34;90.67;99997.28;4978621;28;20062;-84
2023/12/01 02:47:09;;;;;;;31.58;12.07;;;-7.20;99.90;;;-9.31;91.12;100002.44;5013703;28;20116;-85
2023/12/01 02:49:44;;;;;;;;;;;;;;;;;;;;;
2023/12/01 02:52:10;;;;;;;28.17;9.95;;;-7.20;99.90;;;-9.25;91.02;100003.41;4947841;28;22104;-84
2023/12/01 02:54:36;;;;;;;36.03;11.77;;;-7.20;99.90;;;-9.21;91.36;100000.09;4925401;28;20025;-87
2023/12/01 02:57:02;;;;;;;33.17;12.75;;;-7.10;99.90;;;-9.13;91.32;100003.69;4953796;28;20412;-84
2023/12/01 02:59:28;;;;;;;33.17;12.05;;;-7.00;99.90;;;-9.04;91.17;100008.09;5003606;28;20409;-84
2023/12/01 03:02:06;;;;;;;35.85;11.63;;;;;;;-8.96;91.86;100006.56;4976246;28;20138;-87
2023/12/01 03:04:32;;;;;;;34.80;12.43;;;-6.90;99.90;;;-8.89;91.09;100003.31;4967362;28;20037;-89
2023/12/01 03:07:04;;;;;;;31.10;10.65;;;;;;;-8.86;91.65;100005.91;4947953;28;20654;-84
2023/12/01 03:09:30;;;;;;;29.98;11.38;;;-6.90;99.90;;;-8.89;91.46;100003.31;4978267;28;20032;-85
2023/12/01 03:11:58;;;;;;;26.90;9.90;;;;;;;-8.94;91.66;100004.91;4950903;28;21103;-86
2023/12/01 03:14:24;;;;;;;30.65;9.98;;;-6.90;99.90;;;-9.00;91.55;99994.59;4986984;28;20041;-86
2023/12/01 03:16:58;;;;;;;27.73;11.13;;;-6.90;99.90;;;-8.97;91.23;99999.75;4960040;28;20718;-87
2023/12/01 03:19:25;;;;;;;29.30;10.52;;;-6.90;99.90;;;-8.92;91.69;100001.56;4984612;28;20033;-86
2023/12/01 03:21:51;;;;;;;35.97;11.80;;;-6.80;99.90;;;-8.88;91.76;100005.03;4966888;28;20095;-85
2023/12/01 03:24:24;;;;;;;29.13;10.70;;;-6.80;99.90;;;-8.87;92.35;100016.97;4994289;28;20040;-85
2023/12/01 03:26:50;;;;;;;32.95;12.38;;;-6.80;99.90;;;-8.79;92.25;100014.56;4953521;28;20040;-84
2023/12/01 03:29:16;;;;;;;34.10;11.80;;;-6.70;99.90;;;-8.72;92.49;100008.78;4958498;28;20033;-87
2023/12/01 03:31:42;;;;;;;32.05;11.90;;;-6.60;99.90;;;-8.60;92.64;100029.41;5000890;28;20033;-86
2023/12/01 03:34:08;;;;;;;30.95;11.13;;;-6.60;99.90;;;-8.57;92.42;100020.94;4962527;28;20046;-84
2023/12/01 03:36:42;;;;;;;27.20;10.18;;;-6.60;99.90;;;-8.50;92.41;100023.66;4952576;28;20033;-86
2023/12/01 03:39:09;;;;;;;34.28;12.32;;;-6.50;99.90;;;-8.43;92.69;100027.19;4949892;28;20049;-85
2023/12/01 03:41:35;;;;;;;33.85;12.20;;;-6.40;99.90;;;-8.36;92.67;100028.97;4973469;28;20059;-86
2023/12/01 03:44:10;;;;;;;32.20;12.32;;;-6.30;99.90;;;-8.28;93.34;100027.44;4958308;28;20041;-84
2023/12/01 03:46:36;;;;;;;33.90;12.63;;;-6.30;99.90;;;-8.19;93.01;100039.50;4948891;28;20033;-85
2023/12/01 03:49:02;;;;;;;31.15;11.63;;;-6.20;99.90;;;-8.10;93.63;100041.38;4975116;28;20040;-84
2023/12/01 03:51:28;;;;;;;32.33;10.60;;;-6.10;99.90;;;-8.07;93.64;100034.63;4935781;28;20424;-84
2023/12/01 03:54:05;;;;;;;20.45;6.47;;;-6.10;99.90;;;-8.04;93.84;100036.38;4953621;28;20048;-87
2023/12/01 03:56:31;;;;;;;26.63;10.38;;;-6.00;99.90;;;-8.06;94.22;100038.88;4968381;28;20052;-85
2023/12/01 03:59:04;;;;;;;27.73;11.18;;;-6.10;99.90;;;-8.02;93.58;100038.97;5004155;28;20460;-86
2023/12/01 04:01:35;;;;;;;27.05;10.18;;;-6.00;99.90;;;-8.01;94.17;100038.09;4985097;28;20045;-86
2023/12/01 04:04:00;;;;;;;31.50;12.05;;;-6.00;99.90;;;-8.01;94.43;100035.56;4967135;28;20059;-85
2023/12/01 04:06:33;;;;;;;32.45;11.35;;;;;;;-7.98;94.53;100041.59;4967954;28;20067;-87
2023/12/01 04:09:05;;;;;;;35.15;12.82;;;-6.00;99.90;;;-7.99;94.21;100024.56;4953539;28;20108;-85
2023/12/01 04:11:40;;;;;;;25.27;9.60;;;-6.00;99.90;;;-8.00;94.17;100024.50;4977642;28;20472;-85
2023/12/01 04:14:06;;;;;;;30.33;10.23;;;-6.00;99.90;;;-8.03;93.87;100025.31;4927242;28;20978;-87
2023/12/01 04:16:39;;;;;;;28.10;10.32;;;-6.00;99.90;;;-8.02;94.05;100026.19;4982186;28;20037;-84
2023/12/01 04:19:05;;;;;;;32.13;11.63;;;-5.90;99.90;;;-8.03;94.21;100015.09;4941870;28;20042;-86
2023/12/01 04:21:31;;;;;;;31.63;11.88;;;;;;;-7.99;93.76;100026.22;4997650;28;20075;-84
2023/12/01 04:23:57;;;;;;;28.25;10.88;;;-5.90;99.90;;;-7.92;93.70;100026.38;4986388;28;20760;-88
2023/12/01 04:26:24;;;;;;;30.02;9.73;;;-5.90;99.90;;;-7.85;94.55;100037.56;4961158;28;20226;-86
2023/12/01 04:28:57;;;;;;;34.15;11.85;;;;;;;-7.79;93.67;100032.53;4966666;28;20127;-84
2023/12/01 04:31:23;;;;;;;29.58;10.88;;;-5.80;99.90;;;-7.74;93.61;100040.28;4998466;28;20452;-88
2023/12/01 04:33:49;;;;;;;28.10;10.30;;;-5.70;99.90;;;-7.76;93.63;100035.13;4940211;28;20024;-87
2023/12/01 04:36:15;;;;;;;32.33;11.60;;;-5.80;99.90;;;-7.77;94.11;100043.66;4993313;28;20036;-87
2023/12/01 04:38:48;;;;;;;30.30;10.80;;;-5.80;99.90;;;-7.76;94.10;100040.25;4955930;28;20040;-84
2023/12/01 04:41:14;;;;;;;31.48;10.98;;;-5.70;99.90;;;-7.73;93.77;100032.66;4987665;28;20038;-88
2023/12/01 04:43:40;;;;;;;28.98;10.77;;;-4.60;99.90;;;-7.70;93.60;100030.13;4975046;28;20102;-84
2023/12/01 04:46:08;;;;;;;31.80;11.80;;;-5.70;99.90;;;-7.69;93.31;100028.44;4984191;28;20029;-86
2023/12/01 04:48:43;;;;;;;31.90;11.75;;;-5.60;99.90;;;-7.63;93.79;100036.19;4977698;28;20025;-88
2023/12/01 04:51:09;;;;;;;30.75;10.90;;;;;;;-7.59;93.73;100047.34;4987032;28;20149;-84
2023/12/01 04:53:35;;;;;;;30.88;10.93;;;-5.60;99.90;;;-7.56;93.20;100039.72;4975148;28;20512;-87
2023/12/01 04:56:09;;;;;;;27.52;9.57;;;-5.60;99.90;;;-7.55;93.63;100041.44;4981521;28;20059;-84
2023/12/01 04:58:38;;;;;;;32.23;11.13;;;;;;;-7.54;93.64;100046.56;4940950;28;20033;-88
2023/12/01 05:01:04;;;;;;;25.13;9.82;;;-5.60;99.90;;;-7.53;93.31;100047.44;5008277;28;20029;-85
2023/12/01 05:03:39;;;;;;;30.70;11.45;;;;;;;-7.53;93.65;100043.19;4959976;28;20124;-84
2023/12/01 05:06:05;;;;;;;33.45;11.75;;;-5.50;99.90;;;-7.51;92.79;100036.41;4967773;28;20029;-87
2023/12/01 05:08:31;;;;;;;33.97;10.65;;;-5.50;99.90;;;-7.46;93.63;100036.47;4952770;28;20131;-84
2023/12/01 05:11:05;;;;;;;32.13;11.88;;;-5.50;99.90;;;-7.43;93.32;100039.06;4975017;28;20030;-86
2023/12/01 05:13:30;;;;;;;31.60;10.30;;;-5.40;99.90;;;-7.42;92.79;100043.34;4926488;28;20399;-84
2023/12/01 05:15:56;;;;;;;29.35;10.23;;;-5.40;99.90;;;-7.40;92.57;100046.78;4979870;28;20045;-86
2023/12/01 05:18:22;;;;;;;23.42;9.23;;;-5.40;99.90;;;-7.44;93.70;100048.44;4971076;28;20052;-87
2023/12/01 05:20:48;;;;;;;32.42;12.20;;;-5.40;99.90;;;-7.40;93.19;100064.69;5023733;28;20025;-86
2023/12/01 05:23:18;;;;;;;30.20;10.68;;;-5.40;99.90;;;-7.35;93.11;100070.72;4985815;28;20536;-86
2023/12/01 05:25:50;;;;;;;32.28;12.38;;;-5.30;99.90;;;-7.32;93.69;100078.47;4959091;28;20027;-87
2023/12/01 05:28:17;;;;;;;31.95;10.77;;;-5.30;99.90;;;-7.28;93.47;100069.13;4964829;28;20034;-84
2023/12/01 05:30:48;;;;;;;29.83;10.45;;;;;;;-7.26;93.73;100068.31;4957512;28;20049;-89
2023/12/01 05:33:14;;;;;;;33.53;11.77;;;-5.30;99.90;;;-7.27;93.16;100074.28;4972323;28;20041;-87
2023/12/01 05:35:42;;;;;;;23.23;9.63;;;-5.30;99.90;;;-7.30;93.71;100066.56;5005227;28;20032;-83
2023/12/01 05:38:08;;;;;;;28.65;9.43;;;-5.30;99.90;;;-7.31;93.43;100072.50;4988710;28;20035;-89
2023/12/01 05:40:43;;;;;;;26.48;9.43;;;-5.30;99.90;;;-7.30;94.02;100081.91;4970987;28;20442;-85
2023/12/01 05:43:09;;;;;;;26.70;11.25;;;-5.30;99.90;;;-7.30;93.87;100081.91;4955357;28;20044;-85
2023/12/01 05:45:35;;;;;;;32.47;12.15;;;-6.60;99.90;;;-7.30;93.87;100081.91;4976655;28;20025;-85
2023/12/01 05:48:09;;;;;;;28.88;10.65;;;-5.30;99.90;;;-7.29;93.68;100083.63;4967579;28;20026;-84
2023/12/01 05:50:36;;;;;;;29.70;11.50;;;;;;;-7.28;93.51;100082.81;4967581;28;20105;-87
2023/12/01 05:53:10;;;;;;;36.38;11.48;;;-5.30;99.90;;;-7.30;93.75;100076.81;5007495;28;20036;-84
2023/12/01 05:55:37;;;;;;;39.65;12.80;;;-5.30;99.90;;;-7.26;94.17;100087.91;4980935;28;20054;-85
2023/12/01 05:58:09;;;;;;;36.55;12.55;;;-5.30;99.90;;;-7.27;93.41;100084.50;4961942;28;20124;-87
2023/12/01 06:00:43;;;;;;;31.85;11.45;;;-5.30;99.90;;;-7.27;93.22;100079.38;4964025;28;20082;-88
2023/12/01 06:03:11;;;;;;;35.58;12.20;;;-5.30;99.90;;;-7.29;93.73;100088.75;4988389;28;20035;-86
2023/12/01 06:05:49;;;;;;;34.92;12.38;;;-5.30;99.90;;;-7.33;93.67;100086.13;4947334;28;20053;-87
2023/12/01 06:08:14;;;;;;;36.35;12.70;;;-5.30;99.90;;;-7.34;93.63;100077.59;4971103;28;20048;-86
2023/12/01 06:10:40;;;;;;;37.42;12.35;;;-5.30;99.90;;;-7.31;93.24;100082.72;4992985;28;20044;-84
2023/12/01 06:13:16;;;;;;;41.97;13.98;;;-5.30;99.90;;;-7.31;93.64;100080.19;4971378;28;21503;-90
2023/12/01 06:15:42;;;;;;;;;;;-5.30;99.90;;;-7.30;93.31;100081.03;4940934;28;20025;-85
2023/12/01 06:18:07;;;;;;;35.92;11.85;;;-5.30;99.90;;;-7.27;93.92;100083.66;4980200;28;19972;-84
2023/12/01 06:20:41;;;;;;;44.88;13.80;;;-5.20;99.90;;;-7.21;93.63;100081.19;4956239;28;20033;-88
2023/12/01 06:23:10;;;;;;;36.50;13.43;;;-5.20;99.90;;;-7.20;93.50;100079.50;4955235;28;20042;-92
2023/12/01 06:25:46;;;;;;;39.92;14.43;;;-5.20;99.90;;;-7.11;94.01;100087.28;4948969;28;20116;-85
2023/12/01 06:28:12;;;;;;;41.47;12.73;;;-5.10;99.90;;;-7.06;93.23;100094.22;4991192;28;20172;-86
2023/12/01 06:30:38;;;;;;;45.63;13.85;;;-5.10;99.90;;;-7.01;94.11;100095.13;4996720;28;20045;-85
2023/12/01 06:33:12;;;;;;;43.53;14.50;;;-5.00;99.90;;;-6.99;93.99;100091.75;4982874;28;20493;-87
2023/12/01 06:35:38;;;;;;;41.60;13.15;;;-5.00;99.90;;;-6.93;93.77;100096.91;4941865;28;20309;-84
2023/12/01 06:38:08;;;;;;;50.13;15.15;;;;;;;-6.90;93.29;100092.72;4943998;28;20056;-87
2023/12/01 06:40:40;;;;;;;48.97;15.05;;;-4.90;99.90;;;-6.85;93.91;100101.31;4976120;28;20520;-87
2023/12/01 06:43:09;;;;;;;43.13;15.05;;;;;;;-6.77;93.99;100103.13;4941166;28;20464;-87
2023/12/01 06:45:36;;;;;;;42.67;14.65;;;-4.80;99.90;;;-6.73;93.79;100105.75;4959373;28;20034;-87
2023/12/01 06:48:09;;;;;;;39.97;14.57;;;-4.60;99.90;;;-6.69;94.25;100101.53;4911725;28;20766;-86
2023/12/01 06:50:35;;;;;;;44.75;14.73;;;-4.70;99.90;;;-6.65;93.54;100103.28;4957259;28;20034;-88
2023/12/01 06:53:01;;;;;;;42.75;13.15;;;-4.70;99.90;;;-6.61;94.13;100107.59;4936283;28;20021;-84
2023/12/01 06:55:27;;;;;;;43.63;14.05;;;-4.70;99.90;;;-6.60;93.55;100105.06;4969590;28;20051;-85
2023/12/01 06:58:04;;;;;;;42.33;15.25;;;-4.70;99.90;;;-6.58;93.63;100110.22;4911852;28;20424;-85
2023/12/01 07:00:30;;;;;;;49.13;15.02;;;-4.70;99.90;;;-6.57;93.39;100109.38;4952733;28;20033;-86
2023/12/01 07:03:22;;;;;;;40.92;13.93;;;-4.60;99.90;;;-6.58;93.59;100112.78;4978184;28;20025;-87
2023/12/01 07:05:51;;;;;;;39.63;13.60;;;-4.60;99.90;;;-6.59;93.37;100108.47;4967235;28;20159;-85
2023/12/01 07:08:25;;;;;;;39.13;13.13;;;-4.60;99.90;;;-6.62;93.23;100111.03;4954786;28;20052;-88
2023/12/01 07:10:51;;;;;;;37.38;12.75;;;-4.60;99.90;;;-6.61;93.75;100125.53;4982671;28;20053;-84
2023/12/01 07:13:17;;;;;;;40.08;13.43;;;-4.70;99.90;;;-6.62;93.68;100121.25;4951879;28;20075;-88
2023/12/01 07:15:43;;;;;;;39.40;13.57;;;-4.70;99.90;;;-6.64;93.92;100115.25;4967427;28;20048;-86
2023/12/01 07:18:21;;;;;;;46.55;14.75;;;;;;;-6.62;93.51;100118.69;4947290;28;20030;-87
2023/12/01 07:20:47;;;;;;;44.80;15.10;;;;;;;-6.61;93.44;100131.53;4962555;28;20049;-85
2023/12/01 07:23:36;;;;;;;43.33;16.23;;;-4.60;99.90;;;-6.58;93.94;100132.41;4960940;28;20041;-84
2023/12/01 07:26:03;;;;;;;41.55;14.35;;;;;;;-6.61;93.55;100146.91;4869138;28;20156;-85
2023/12/01 07:28:29;;;;;;;44.58;15.48;;;;;;;-6.62;94.11;100152.00;4836353;28;20043;-87
2023/12/01 07:30:55;;;;;;;45.22;15.48;;;-4.70;99.90;;;-6.60;93.88;100150.31;4875954;28;20038;-86
2023/12/01 07:33:30;;;;;;;44.45;15.23;;;;;;;-6.58;93.56;100155.47;4837396;28;20043;-87
2023/12/01 07:35:59;;;;;;;;;;;-4.60;99.90;;;-6.59;93.96;100149.47;4869309;28;20602;-86
2023/12/01 07:38:36;;;;;;;38.22;13.57;;;-4.60;99.90;;;-6.58;94.56;100151.19;4866329;28;20386;-86
2023/12/01 07:41:02;;;;;;;40.33;13.55;;;-4.60;99.90;;;-6.56;94.64;100154.66;4874391;28;20055;-84
2023/12/01 07:43:28;;;;;;;45.55;14.48;;;-4.50;99.90;;;-6.52;94.67;100169.22;4862163;28;20059;-84
2023/12/01 07:46:06;;;;;;;46.05;15.20;;;-4.50;99.90;;;-6.48;94.89;100159.84;4895025;28;20032;-85
2023/12/01 07:48:32;;;;;;;43.22;15.98;;;-3.50;99.90;;;-6.46;95.08;100166.72;4846062;28;20035;-84
2023/12/01 07:51:10;;;;;;;47.92;16.63;;;;;;;-6.38;94.85;100171.09;4868008;28;20814;-87
2023/12/01 07:53:36;;;;;;;49.63;16.08;;;;;;;-6.33;93.92;100174.56;4853315;28;20046;-89
2023/12/01 07:56:22;;;;;;;57.17;17.45;;;-4.40;99.90;;;-6.24;94.65;100175.56;4898516;28;20574;-85
2023/12/01 07:58:50;;;;;;;49.78;16.13;;;;;;;-6.20;93.91;100184.13;4817146;28;20039;-85
2023/12/01 08:01:17;;;;;;;41.75;14.38;;;-4.30;99.90;;;-6.11;94.56;100183.38;4916702;28;20049;-86
2023/12/01 08:04:10;;;;;;;43.30;14.70;;;;;;;-6.10;94.54;100180.84;4944348;28;20043;-85
2023/12/01 08:06:35;;;;;;;40.58;14.82;;;-4.20;99.90;;;-6.07;93.82;100186.03;4985198;28;20036;-88
2023/12/01 08:09:01;;;;;;;41.13;15.02;;;-4.20;99.90;;;-6.04;93.86;100188.63;4938231;28;20066;-88
2023/12/01 08:11:30;;;;;;;43.60;14.85;;;-4.10;99.90;;;-6.00;94.17;100187.81;4958151;28;20048;-87
2023/12/01 08:13:59;;;;;;;44.60;15.75;;;-4.10;99.90;;;-5.97;94.15;100192.09;4957095;28;20029;-86
2023/12/01 08:16:57;;;;;;;42.78;14.70;;;;;;;-5.93;93.75;100187.88;4955100;28;20117;-89
2023/12/01 08:19:23;;;;;;;51.28;15.35;;;-4.00;99.90;;;-5.94;94.32;100192.09;4830881;29;20077;-84
2023/12/01 08:21:49;;;;;;;44.60;15.25;;;-4.00;99.90;;;-5.89;93.85;100205.84;4829162;29;20470;-87
2023/12/01 08:24:32;;;;;;;50.97;16.25;;;;;;;-5.85;93.83;100211.88;4827455;29;20044;-88
2023/12/01 08:27:22;;;;;;;44.10;15.20;;;-3.90;99.90;;;-5.80;94.29;100217.94;4845538;29;20554;-87
2023/12/01 08:29:47;;;;;;;49.50;16.55;;;-3.90;99.90;;;-5.76;94.07;100214.56;4821671;29;20134;-89
2023/12/01 08:32:13;;;;;;;51.58;16.65;;;-3.90;99.90;;;-5.71;94.07;100219.72;4833556;29;20047;-84
2023/12/01 08:34:39;;;;;;;48.63;16.05;;;-3.80;99.90;;;-5.64;94.13;100226.63;4819783;29;20040;-86
2023/12/01 08:37:16;;;;;;;50.28;17.33;;;-3.80;99.90;;;-5.65;94.33;100215.53;4836037;29;20505;-88
2023/12/01 08:39:44;;;;;;;50.85;17.38;;;-3.70;99.90;;;-5.56;94.64;100228.44;4845272;29;20036;-86
2023/12/01 08:42:18;;;;;;;58.38;18.35;;;-3.70;99.90;;;-5.50;94.81;100229.38;4819227;29;21359;-86
2023/12/01 08:44:44;;;;;;;60.17;18.05;;;;;;;-5.44;94.47;100229.41;4806968;29;20051;-86
2023/12/01 08:47:13;;;;;;;57.47;18.00;;;-3.50;99.90;;;-5.38;94.19;100238.06;4811317;29;20543;-90
2023/12/01 08:50:02;;;;;;;68.70;18.05;;;;;;;-5.31;94.34;100235.53;4841889;29;20250;-86
2023/12/01 08:52:28;;;;;;;59.95;18.60;;;-3.50;99.90;;;-5.27;94.65;100237.28;4848250;29;20381;-84
2023/12/01 08:54:54;;;;;;;65.30;19.10;;;-3.40;99.90;;;-5.21;94.58;100243.34;4826334;29;20056;-86
2023/12/01 08:57:20;;;;;;;68.80;18.85;;;-3.30;99.90;;;-5.15;94.48;100230.56;4967336;28;20085;-85
2023/12/01 08:59:57;;;;;;;56.05;18.15;;;-3.30;99.90;;;-5.02;94.30;100234.09;4952536;28;20037;-86
2023/12/01 09:02:32;;;;;;;56.90;17.48;;;-3.20;99.90;;;-4.95;94.05;100240.16;4936842;28;20171;-86
2023/12/01 09:04:59;;;;;;;58.20;17.80;;;;;;;-4.91;94.26;100239.34;4937281;28;20117;-85
2023/12/01 09:07:28;;;;;;;60.50;18.83;;;-3.10;99.90;;;-4.87;93.94;100245.38;4967600;28;20120;-87
2023/12/01 09:10:05;;;;;;;58.08;17.83;;;;;;;-4.87;93.78;100260.78;4950406;28;20042;-87
2023/12/01 09:12:32;;;;;;;51.58;18.35;;;-3.10;99.90;;;-4.87;94.02;100255.66;4999623;28;20034;-84
2023/12/01 09:15:05;;;;;;;68.38;19.67;;;;;;;-4.86;94.51;100262.47;4960115;28;20059;-86
2023/12/01 09:17:31;;;;;;;59.17;18.45;;;;;;;-4.87;93.78;100258.22;4960077;28;21869;-87
2023/12/01 09:19:57;;;;;;;58.13;19.33;;;;;;;-4.88;94.01;100257.38;4991824;28;20118;-85
2023/12/01 09:22:23;;;;;;;55.72;18.83;;;-3.00;99.90;;;-4.91;93.56;100267.59;5016665;28;20048;-84
2023/12/01 09:24:58;;;;;;;59.55;18.80;;;-3.00;99.90;;;-4.87;93.66;100260.78;4998556;28;20534;-85
2023/12/01 09:27:24;;;;;;;54.00;18.07;;;;;;;-4.84;93.24;100268.50;4955322;28;20063;-85
2023/12/01 09:30:04;;;;;;;61.53;18.98;;;-3.00;99.90;;;-4.78;93.44;100263.41;4977248;28;20130;-84
2023/12/01 09:32:39;;;;;;;60.55;18.98;;;-2.90;99.90;;;-4.71;94.00;100269.47;4972268;28;20083;-85
2023/12/01 09:35:06;;;;;;;59.72;20.55;;;-2.90;99.90;;;-4.66;93.95;100276.38;4983649;28;20036;-86
2023/12/01 09:37:32;;;;;;;60.85;19.50;;;-2.80;99.90;;;-4.58;93.88;100281.56;4982158;28;20033;-84
2023/12/01 09:39:58;;;;;;;66.65;20.10;;;-2.80;99.90;;;-4.55;93.13;100273.88;4986042;28;20495;-84
2023/12/01 09:42:34;;;;;;;62.88;20.30;;;-2.70;99.90;;;-4.48;93.34;100270.50;4994102;28;20048;-87
2023/12/01 09:45:04;;;;;;;57.58;19.77;;;;;;;-4.42;93.50;100275.69;4983774;28;20049;-85
2023/12/01 09:47:51;;;;;;;66.43;21.13;;;-2.60;99.90;;;-4.34;93.50;100271.47;4991961;28;20099;-84
2023/12/01 09:50:21;;;;;;;58.10;19.50;;;-2.50;99.90;;;-4.26;93.43;100270.66;4993620;28;20094;-86
2023/12/01 09:52:47;;;;;;;61.67;20.38;;;-2.50;99.90;;;-4.20;93.65;100268.13;4964628;28;20028;-86
2023/12/01 09:55:25;;;;;;;70.28;20.75;;;-2.40;99.90;;;-4.17;93.51;100275.84;4965125;28;20033;-84
2023/12/01 09:58:07;;;;;;;57.92;19.85;;;-2.40;99.90;;;-4.13;93.15;100265.59;4982692;28;20075;-84
2023/12/01 10:00:38;;;;;;;62.35;20.48;;;-2.30;99.90;;;-4.07;93.44;100276.78;4974737;28;20116;-87
2023/12/01 10:03:10;;;;;;;60.15;21.58;;;;;;;-4.02;93.30;100269.94;4993250;28;20041;-85
2023/12/01 10:05:50;;;;;;;60.92;21.13;;;-2.20;99.90;;;-3.96;93.49;100263.09;4994048;28;20036;-85
2023/12/01 10:08:32;;;;;;;60.10;20.38;;;-2.20;99.90;;;-3.88;93.07;100270.03;5013083;28;20041;-85
2023/12/01 10:11:23;;;;;;;62.85;19.27;;;-2.10;99.90;;;-3.85;92.94;100270.03;4993637;28;20127;-87
2023/12/01 10:13:51;;;;;;;64.97;19.90;;;-2.10;99.90;;;-3.85;92.91;100276.03;4987019;28;20037;-86
2023/12/01 10:16:24;;;;;;;59.35;20.60;;;-2.10;99.90;;;-3.84;93.12;100272.63;4994575;28;20094;-85
2023/12/01 10:19:06;;;;;;;59.42;20.35;;;-2.00;99.90;;;-3.81;92.94;100285.47;4996532;28;20050;-84
2023/12/01 10:21:46;;;;;;;67.30;21.02;;;-2.00;99.90;;;-3.80;93.08;100273.47;4995997;28;20138;-84
2023/12/01 10:24:14;;;;;;;62.45;20.02;;;-2.00;99.90;;;-3.79;93.34;100276.06;4998262;28;20036;-84
2023/12/01 10:26:49;;;;;;;62.90;21.50;;;-2.00;99.90;;;-3.75;93.08;100276.94;4976313;28;20442;-84
2023/12/01 10:29:32;;;;;;;63.78;19.33;;;-1.90;99.90;;;-3.73;92.91;100268.38;4979380;28;20052;-85